Time;durP1;ratioP1;P1;durP2;ratioP2;P2;SDS_P1;SDS_P2;PMS_P1;PMS_P2;Temp;Humidity;BMP_temperature;BMP_pressure;BME280_temperature;BME280_humidity;BME280_pressure;Samples;Min_cycle;Max_cycle;Signal;HPM_P1;HPM_P2
2024/02/05 00:03:36;;;;;;;15.05;3.92;;;;;;;8.08;100.00;100528.63;10101160;28;20499;-73
2024/02/05 00:08:32;;;;;;;15.95;4.05;;;;;;;8.08;100.00;100553.13;10103252;28;20050;-72
2024/02/05 00:13:30;;;;;;;16.33;4.22;;;;;;;8.05;100.00;100555.63;10099278;28;20055;-73
2024/02/05 00:18:27;;;;;;;21.35;5.40;;;;;;;8.01;100.00;100561.69;10104528;28;20051;-74
2024/02/05 00:23:23;;;;;;;23.65;5.82;;;;;;;7.99;100.00;100544.06;10100471;28;20118;-74
2024/02/05 00:28:20;;;;;;;23.75;5.03;;;;;;;7.97;100.00;100565.34;10102231;28;20074;-75
2024/02/05 00:33:17;;;;;;;17.35;5.45;;;;;;;7.95;100.00;100545.78;10106823;28;20065;-75
2024/02/05 00:38:13;;;;;;;16.88;4.40;;;;;;;7.94;100.00;100538.72;10097939;28;20495;-74
2024/02/05 00:43:10;;;;;;;16.35;5.95;;;;;;;7.93;100.00;100564.31;10100904;28;20495;-75
2024/02/05 00:48:07;;;;;;;30.67;6.18;;;;;;;7.92;100.00;100558.06;10099790;28;20039;-74
2024/02/05 00:53:06;;;;;;;21.63;7.40;;;;;;;7.92;100.00;100581.78;10107327;28;20049;-74
2024/02/05 00:58:03;;;;;;;16.92;5.53;;;;;;;7.90;100.00;100581.28;10101391;28;20502;-74
2024/02/05 01:02:59;;;;;;;30.75;6.47;;;;;;;7.88;100.00;100576.13;10100890;28;20583;-76
2024/02/05 01:07:56;;;;;;;19.50;6.43;;;;;;;7.83;100.00;100580.88;10102533;28;20042;-76
2024/02/05 01:12:53;;;;;;;23.27;5.78;;;;;;;7.79;100.00;100581.47;10103759;28;20310;-73
2024/02/05 01:17:49;;;;;;;22.90;5.43;;;;;;;7.75;100.00;100613.13;10104218;28;20043;-74
2024/02/05 01:22:47;;;;;;;26.70;4.97;;;;;;;7.74;100.00;100603.34;10102415;28;20045;-74
2024/02/05 01:27:44;;;;;;;26.67;7.00;;;;;;;7.72;100.00;100608.28;10106337;28;20054;-73
2024/02/05 01:32:41;;;;;;;23.63;4.85;;;;;;;7.70;100.00;100626.81;10096694;28;20813;-75
2024/02/05 01:37:37;;;;;;;15.32;4.53;;;;;;;7.69;100.00;100608.88;10108710;28;20477;-75
2024/02/05 01:42:34;;;;;;;24.30;5.82;;;;;;;7.68;100.00;100596.41;10103317;28;20054;-75
2024/02/05 01:47:32;;;;;;;15.82;4.07;;;;;;;7.67;100.00;100627.41;10101929;28;20058;-72
2024/02/05 01:52:29;;;;;;;18.33;4.28;;;;;;;7.67;100.00;100627.41;10100853;28;20094;-73
2024/02/05 01:57:26;;;;;;;14.52;3.80;;;;;;;7.65;100.00;100607.88;10105643;28;20042;-76
2024/02/05 02:02:23;;;;;;;17.55;4.25;;;;;;;7.63;100.00;100606.56;10100778;28;20058;-74
2024/02/05 02:07:20;;;;;;;12.15;4.32;;;;;;;7.64;100.00;100610.91;10099744;28;20061;-74
2024/02/05 02:12:16;;;;;;;17.73;5.25;;;;;;;7.63;100.00;100615.50;10103470;28;20051;-74
2024/02/05 02:17:14;;;;;;;18.58;4.65;;;;;;;7.62;100.00;100603.03;10104137;28;20518;-73
2024/02/05 02:22:23;;;;;;;19.67;4.50;;;;;;;7.59;100.00;100625.41;10094302;28;20047;-72
2024/02/05 02:27:20;;;;;;;23.88;5.88;;;;;;;7.61;100.00;100616.94;10104845;28;20102;-72
2024/02/05 02:32:40;;;;;;;20.20;4.70;;;;;;;7.57;100.00;100619.47;10105722;28;20055;-75
2024/02/05 02:37:57;;;;;;;21.38;5.32;;;;;;;7.57;100.00;100611.28;10110687;28;20058;-76
2024/02/05 02:43:03;;;;;;;22.83;4.97;;;;;;;7.54;100.00;100625.47;10101423;28;20075;-76
2024/02/05 02:48:00;;;;;;;12.52;3.38;;;;;;;7.48;100.00;100607.66;10102451;28;20054;-76
2024/02/05 02:52:56;;;;;;;21.90;4.45;;;;;;;7.51;100.00;100612.47;10105648;28;20416;-76
2024/02/05 02:57:53;;;;;;;10.85;2.72;;;;;;;7.46;100.00;100615.31;10103905;28;20074;-75
2024/02/05 03:02:49;;;;;;;21.50;3.10;;;;;;;7.44;100.00;100609.34;10106332;28;20061;-75
2024/02/05 03:07:46;;;;;;;13.52;4.70;;;;;;;7.46;100.00;100596.25;10100119;28;20053;-75
2024/02/05 03:12:42;;;;;;;18.40;4.25;;;;;;;7.45;100.00;100595.47;10113909;28;20062;-75
2024/02/05 03:17:39;;;;;;;13.48;5.63;;;;;;;7.46;100.00;100605.22;10104817;28;20086;-73
2024/02/05 03:22:35;;;;;;;19.08;4.35;;;;;;;7.46;100.00;100598.97;10110149;28;20053;-74
2024/02/05 03:27:32;;;;;;;13.98;3.88;;;;;;;7.41;100.00;100597.16;10090291;28;20055;-75
2024/02/05 03:32:29;;;;;;;14.20;4.47;;;;;;;7.44;100.00;100585.66;10114577;28;20055;-75
2024/02/05 03:37:25;;;;;;;13.73;4.05;;;;;;;7.43;100.00;100602.31;10102319;28;20055;-76
2024/02/05 03:42:23;;;;;;;17.77;3.97;;;;;;;7.49;100.00;100603.81;10107861;28;20143;-72
2024/02/05 03:47:19;;;;;;;14.35;4.68;;;;;;;7.48;100.00;100602.22;10108739;28;20050;-77
2024/02/05 03:52:16;;;;;;;17.90;4.88;;;;;;;7.50;100.00;100591.84;10105715;28;20549;-78
2024/02/05 03:57:13;;;;;;;15.23;4.40;;;;;;;7.55;100.00;100597.19;10103415;28;20153;-74
2024/02/05 04:02:10;;;;;;;18.75;5.47;;;;;;;7.53;100.00;100593.94;10095983;28;20039;-73
2024/02/05 04:07:06;;;;;;;14.85;4.35;;;;;;;7.55;100.00;100608.06;10108288;28;20079;-74
2024/02/05 04:12:03;;;;;;;18.98;5.75;;;;;;;7.55;100.00;100608.06;10102493;28;20515;-75
2024/02/05 04:17:00;;;;;;;24.95;6.93;;;;;;;7.56;100.00;100615.09;10097169;28;20676;-74
2024/02/05 04:21:56;;;;;;;25.27;7.22;;;;;;;7.54;100.00;100623.59;10105072;28;20078;-75
2024/02/05 04:26:52;;;;;;;21.77;6.05;;;;;;;7.53;100.00;100613.78;10104967;28;20137;-75
2024/02/05 04:31:49;;;;;;;27.20;5.88;;;;;;;7.49;100.00;100598.38;10106922;28;20138;-74
2024/02/05 04:36:48;;;;;;;22.20;6.10;;;;;;;7.51;100.00;100601.59;10105907;28;20093;-74
2024/02/05 04:41:45;;;;;;;19.13;6.25;;;;;;;7.47;100.00;100606.00;10108783;28;20553;-76
2024/02/05 04:46:42;;;;;;;24.15;6.10;;;;;;;7.50;100.00;100624.47;10112585;28;20065;-76
2024/02/05 04:51:39;;;;;;;35.45;6.57;;;;;;;7.55;100.00;100606.13;10093616;28;20632;-77
2024/02/05 04:56:35;;;;;;;32.78;7.40;;;;;;;7.56;100.00;100628.72;10101872;28;20039;-77
2024/02/05 05:01:32;;;;;;;34.08;8.30;;;;;;;7.56;100.00;100623.28;10112499;28;20055;-77
2024/02/05 05:06:28;;;;;;;46.42;7.60;;;;;;;7.56;100.00;100604.22;10099136;28;20567;-79
2024/02/05 05:11:25;;;;;;;36.83;9.60;;;;;;;7.56;100.00;100582.44;10101391;28;20047;-78
2024/02/05 05:16:21;;;;;;;32.30;7.70;;;;;;;7.55;100.00;100597.97;10094841;28;20510;-74
2024/02/05 05:21:18;;;;;;;38.67;8.60;;;;;;;7.55;100.00;100586.28;10104197;28;20057;-74
2024/02/05 05:26:14;;;;;;;39.40;8.98;;;;;;;7.54;100.00;100568.34;10087805;28;20504;-74
2024/02/05 05:31:16;;;;;;;52.25;10.52;;;;;;;7.51;100.00;100585.28;10101663;28;20416;-73
2024/02/05 05:36:13;;;;;;;45.20;11.00;;;;;;;7.50;100.00;100578.22;10094710;28;20055;-72
2024/02/05 05:41:09;;;;;;;34.72;7.57;;;;;;;7.51;100.00;100574.41;10095703;28;20051;-72
2024/02/05 05:46:06;;;;;;;27.85;7.00;;;;;;;7.50;100.00;100600.00;10101211;28;20109;-75
2024/02/05 05:51:02;;;;;;;33.00;7.63;;;;;;;7.49;100.00;100577.41;10106564;28;20586;-74
2024/02/05 05:55:59;;;;;;;39.75;7.00;;;;;;;7.48;100.00;100596.78;10086975;28;20543;-74
2024/02/05 06:00:55;;;;;;;37.22;7.68;;;;;;;7.48;100.00;100580.44;10103975;28;20817;-75
2024/02/05 06:05:52;;;;;;;26.30;8.43;;;;;;;7.46;100.00;100588.91;10107306;28;20498;-76
2024/02/05 06:10:48;;;;;;;19.65;6.43;;;;;;;7.46;100.00;100588.09;10110596;28;20043;-74
2024/02/05 06:15:45;;;;;;;44.38;7.70;;;;;;;7.46;100.00;100588.09;10104840;28;20045;-74
2024/02/05 06:20:42;;;;;;;31.85;7.75;;;;;;;7.45;100.00;100597.34;10107237;28;20118;-73
2024/02/05 06:25:38;;;;;;;36.97;6.72;;;;;;;7.43;100.00;100588.72;10105945;28;20047;-73
2024/02/05 06:30:37;;;;;;;38.10;7.53;;;;;;;7.40;100.00;100611.03;10103139;28;20119;-73
2024/02/05 06:35:34;;;;;;;44.30;9.70;;;;;;;7.33;100.00;100590.50;10112414;28;20417;-75
2024/02/05 06:40:31;;;;;;;29.88;7.70;;;;;;;7.38;100.00;100598.56;10107836;28;20082;-75
2024/02/05 06:45:28;;;;;;;24.38;7.25;;;;;;;7.37;100.00;100601.56;10111458;28;20502;-75
2024/02/05 06:50:24;;;;;;;29.15;6.93;;;;;;;7.34;100.00;100602.97;10105109;28;20121;-75
2024/02/05 06:55:21;;;;;;;24.20;6.97;;;;;;;7.30;100.00;100588.34;10113982;28;20062;-77
2024/02/05 07:00:17;;;;;;;32.90;8.20;;;;;;;7.32;100.00;100604.38;10109341;28;20103;-74
2024/02/05 07:05:14;;;;;;;37.72;7.22;;;;;;;7.31;100.00;100609.03;10113312;28;20396;-73
2024/02/05 07:10:11;;;;;;;31.50;8.05;;;;;;;7.31;100.00;100619.91;10113991;28;20054;-74
2024/02/05 07:15:08;;;;;;;39.97;8.65;;;;;;;7.31;100.00;100617.19;10113968;28;20050;-75
2024/02/05 07:20:05;;;;;;;33.20;8.93;;;;;;;7.31;100.00;100608.19;10108879;28;20101;-75
2024/02/05 07:25:02;;;;;;;51.15;9.50;;;;;;;7.32;100.00;100594.31;10100882;28;20047;-74
2024/02/05 07:29:59;;;;;;;49.80;13.13;;;;;;;7.32;100.00;100599.75;10111480;28;20571;-73
2024/02/05 07:34:56;;;;;;;30.20;9.93;;;;;;;7.35;100.00;100637.22;10108717;28;20050;-73
2024/02/05 07:39:53;;;;;;;41.38;11.50;;;;;;;7.39;100.00;100634.72;10099940;28;20066;-73
2024/02/05 07:44:49;;;;;;;43.13;11.80;;;;;;;7.43;100.00;100610.47;10118959;28;20046;-73
2024/02/05 07:49:46;;;;;;;37.25;10.82;;;;;;;7.48;100.00;100627.50;10107039;28;20047;-73
2024/02/05 07:54:42;;;;;;;34.30;11.52;;;;;;;7.48;100.00;100640.28;10111374;28;20069;-73
2024/02/05 07:59:39;;;;;;;37.85;12.40;;;;;;;7.48;100.00;100634.84;10115517;28;20046;-74
2024/02/05 08:04:35;;;;;;;42.60;13.52;;;;;;;7.48;100.00;100645.72;10100086;28;20404;-74
2024/02/05 08:09:32;;;;;;;36.05;14.05;;;;;;;7.56;100.00;100675.75;10104785;28;20514;-73
2024/02/05 08:14:31;;;;;;;29.65;13.00;;;;;;;7.58;100.00;100673.56;10100163;28;20552;-72
2024/02/05 08:19:28;;;;;;;40.58;12.30;;;;;;;7.61;100.00;100693.91;10098906;28;20530;-74
2024/02/05 08:24:25;;;;;;;34.20;12.25;;;;;;;7.67;100.00;100735.47;10099908;28;20430;-74
2024/02/05 08:29:22;;;;;;;39.17;13.45;;;;;;;7.62;100.00;100774.47;10092752;28;20511;-75
2024/02/05 08:34:19;;;;;;;31.48;12.07;;;;;;;7.64;100.00;100785.88;10103764;28;20054;-74
2024/02/05 08:39:16;;;;;;;35.47;13.43;;;;;;;7.71;100.00;100809.97;10099578;28;20051;-73
2024/02/05 08:44:12;;;;;;;24.83;13.13;;;;;;;7.67;100.00;100845.13;10112718;28;20054;-75
2024/02/05 08:49:10;;;;;;;35.13;13.77;;;;;;;7.68;100.00;100840.50;10110154;28;20050;-74
2024/02/05 08:54:07;;;;;;;35.58;14.23;;;;;;;7.68;100.00;100863.09;10098730;28;20525;-74
2024/02/05 08:59:04;;;;;;;37.03;14.18;;;;;;;7.71;100.00;100846.16;10099163;28;20046;-73
2024/02/05 09:04:00;;;;;;;40.35;12.50;;;;;;;7.77;100.00;100876.81;10100004;28;20532;-73
2024/02/05 09:08:57;;;;;;;38.30;14.68;;;;;;;7.77;100.00;100885.00;10104526;28;20097;-74
2024/02/05 09:13:53;;;;;;;28.02;14.38;;;;;;;7.66;100.00;100895.25;10100610;28;20046;-74
2024/02/05 09:18:50;;;;;;;42.05;16.92;;;;;;;7.62;100.00;100879.78;10101741;28;20071;-73
2024/02/05 09:23:46;;;;;;;29.02;13.90;;;;;;;7.59;100.00;100876.56;10106852;28;20043;-73
2024/02/05 09:28:44;;;;;;;33.50;13.82;;;;;;;7.55;100.00;100869.28;10101894;28;20742;-76
2024/02/05 09:33:40;;;;;;;33.88;12.70;;;;;;;7.49;100.00;100875.88;10094665;28;20043;-73
2024/02/05 09:38:37;;;;;;;32.30;12.50;;;;;;;7.41;100.00;100858.31;10107815;28;20039;-74
2024/02/05 09:43:33;;;;;;;27.40;12.43;;;;;;;7.37;100.00;100836.31;10104152;28;20061;-75
2024/02/05 09:48:35;;;;;;;32.00;11.40;;;;;;;7.36;100.00;100802.06;10112670;28;20550;-74
2024/02/05 09:53:39;;;;;;;26.17;12.25;;;;;;;7.37;100.00;100787.34;10099624;28;20043;-73
2024/02/05 09:58:36;;;;;;;43.17;12.10;;;;;;;7.40;100.00;100768.81;10109719;28;20042;-74
2024/02/05 10:03:33;;;;;;;22.90;10.43;;;;;;;7.40;100.00;100776.97;10109530;28;20481;-74
2024/02/05 10:08:32;;;;;;;37.15;11.70;;;;;;;7.36;100.00;100777.56;10102558;28;20047;-74
2024/02/05 10:13:29;;;;;;;31.60;12.15;;;;;;;7.36;100.00;100755.00;10111699;28;20089;-74
2024/02/05 10:18:26;;;;;;;28.48;11.25;;;;;;;7.35;100.00;100756.91;10113069;28;20046;-74
2024/02/05 10:23:23;;;;;;;22.92;10.95;;;;;;;7.37;100.00;100746.53;10108684;28;20047;-74
2024/02/05 10:28:23;;;;;;;33.63;10.48;;;;;;;7.36;100.00;100747.66;10104527;28;20605;-74
2024/02/05 10:33:23;;;;;;;34.08;11.13;;;;;;;7.31;100.00;100736.84;10114482;28;20054;-74
2024/02/05 10:38:23;;;;;;;46.80;13.15;;;;;;;7.34;100.00;100738.19;10109088;28;20042;-74
2024/02/05 10:43:20;;;;;;;34.95;10.27;;;;;;;7.32;100.00;100741.19;10106554;28;20109;-73
2024/02/05 10:48:16;;;;;;;41.75;12.50;;;;;;;7.34;100.00;100728.09;10105201;28;20054;-74
2024/02/05 10:53:15;;;;;;;34.22;10.80;;;;;;;7.36;100.00;100739.50;10098703;28;20421;-73
2024/02/05 10:58:14;;;;;;;33.95;9.93;;;;;;;7.36;100.00;100720.44;10113626;28;20058;-73
2024/02/05 11:03:14;;;;;;;31.42;9.57;;;;;;;7.33;100.00;100721.06;10113355;28;20043;-73
2024/02/05 11:08:16;;;;;;;26.67;9.73;;;;;;;7.33;100.00;100721.06;10107713;28;20447;-73
2024/02/05 11:13:18;;;;;;;31.75;11.70;;;;;;;7.32;100.00;100713.97;10094672;28;20526;-73
2024/02/05 11:18:20;;;;;;;45.80;12.18;;;;;;;7.29;100.00;100720.03;10113151;28;20134;-74
2024/02/05 11:23:19;;;;;;;33.00;10.47;;;;;;;7.32;100.00;100694.13;10100938;28;20423;-72
2024/02/05 11:28:15;;;;;;;31.60;11.32;;;;;;;7.28;100.00;100710.22;10105897;28;20519;-73
2024/02/05 11:33:23;;;;;;;30.80;9.73;;;;;;;7.29;100.00;100702.91;10110505;28;20058;-74
2024/02/05 11:38:21;;;;;;;25.48;10.93;;;;;;;7.28;100.00;100696.63;10101992;28;20074;-74
2024/02/05 11:43:25;;;;;;;21.15;9.63;;;;;;;7.27;100.00;100711.34;10090079;28;20102;-73
2024/02/05 11:48:22;;;;;;;28.20;10.38;;;;;;;7.27;100.00;100684.16;10094701;28;20071;-73
2024/02/05 11:53:20;;;;;;;36.25;10.43;;;;;;;7.25;100.00;100697.22;10111857;28;20051;-73
2024/02/05 11:58:17;;;;;;;23.30;10.50;;;;;;;7.24;100.00;100694.81;10103452;28;20046;-73
2024/02/05 12:03:14;;;;;;;28.75;9.15;;;;;;;7.24;100.00;100739.13;10098917;28;20047;-73
2024/02/05 12:08:12;;;;;;;31.67;10.25;;;;;;;7.24;100.00;100701.06;10103196;28;20051;-74
2024/02/05 12:13:09;;;;;;;27.42;11.07;;;;;;;7.25;100.00;100710.81;10113380;28;20054;-74
2024/02/05 12:18:06;;;;;;;25.77;9.68;;;;;;;7.22;100.00;100703.28;10097436;28;20038;-74
2024/02/05 12:23:04;;;;;;;36.85;11.48;;;;;;;7.23;100.00;100694.00;10100253;28;20058;-75
2024/02/05 12:28:00;;;;;;;29.67;10.55;;;;;;;7.27;100.00;100694.22;10099893;28;20470;-74
2024/02/05 12:32:57;;;;;;;24.95;10.00;;;;;;;7.27;100.00;100694.22;10104346;28;20051;-74
2024/02/05 12:37:54;;;;;;;24.92;10.85;;;;;;;7.26;100.00;100717.88;10096614;28;20321;-74
2024/02/05 12:42:51;;;;;;;27.55;10.95;;;;;;;7.23;100.00;100709.50;10089948;28;20046;-74
2024/02/05 12:47:48;;;;;;;24.02;11.18;;;;;;;7.26;100.00;100687.97;10096848;28;20038;-74
2024/02/05 12:52:45;;;;;;;32.05;11.23;;;;;;;7.25;100.00;100702.66;10100450;28;20057;-74
2024/02/05 12:57:42;;;;;;;22.15;10.98;;;;;;;7.24;100.00;100706.50;10106573;28;20039;-74
2024/02/05 13:02:38;;;;;;;28.35;11.10;;;;;;;7.24;100.00;100690.19;10099521;28;20050;-74
2024/02/05 13:07:35;;;;;;;30.95;12.65;;;;;;;7.23;100.00;100723.91;10108952;28;20422;-74
2024/02/05 13:12:33;;;;;;;21.77;10.93;;;;;;;7.20;100.00;100686.44;10105271;28;20558;-74
2024/02/05 13:17:29;;;;;;;26.65;10.45;;;;;;;7.14;100.00;100703.94;10109292;28;20065;-74
2024/02/05 13:22:26;;;;;;;15.13;9.60;;;;;;;7.18;100.00;100713.13;10111533;28;20133;-74
2024/02/05 13:27:23;;;;;;;26.30;8.98;;;;;;;7.17;100.00;100681.56;10101989;28;20054;-76
2024/02/05 13:32:20;;;;;;;29.85;12.70;;;;;;;7.18;100.00;100696.81;10104608;28;20051;-74
2024/02/05 13:37:17;;;;;;;30.88;12.50;;;;;;;7.19;100.00;100701.13;10094021;28;20105;-74
2024/02/05 13:42:13;;;;;;;30.60;15.50;;;;;;;7.24;100.00;100711.13;10100018;28;20054;-75
2024/02/05 13:47:10;;;;;;;33.20;13.38;;;;;;;7.20;100.00;100721.78;10096936;28;20087;-76
2024/02/05 13:52:06;;;;;;;27.75;14.30;;;;;;;7.21;100.00;100739.72;10093814;28;20506;-77
2024/02/05 13:57:03;;;;;;;26.08;12.77;;;;;;;7.25;100.00;100762.50;10104202;28;20053;-76
2024/02/05 14:02:00;;;;;;;29.33;14.27;;;;;;;7.19;100.00;100763.66;10108253;28;20047;-75
2024/02/05 14:06:57;;;;;;;29.27;14.60;;;;;;;7.23;100.00;100786.47;10101470;28;20042;-75
2024/02/05 14:11:54;;;;;;;32.15;14.35;;;;;;;7.20;100.00;100792.50;10104361;28;20047;-75
2024/02/05 14:16:52;;;;;;;21.00;12.68;;;;;;;7.16;100.00;100807.78;10097659;28;20042;-74
2024/02/05 14:21:48;;;;;;;18.38;12.43;;;;;;;7.19;100.00;100801.75;10103057;28;20406;-75
2024/02/05 14:26:45;;;;;;;22.10;14.73;;;;;;;7.17;100.00;100817.53;10087925;28;20243;-74
2024/02/05 14:31:41;;;;;;;21.88;13.98;;;;;;;7.15;100.00;100814.31;10104071;28;20070;-74
2024/02/05 14:36:39;;;;;;;15.55;12.82;;;;;;;7.10;100.00;100808.94;10104180;28;20565;-75
2024/02/05 14:41:35;;;;;;;22.48;12.60;;;;;;;7.11;100.00;100821.44;10112884;28;20494;-74
2024/02/05 14:46:32;;;;;;;21.33;15.18;;;;;;;7.07;100.00;100809.53;10105373;28;20101;-75
2024/02/05 14:51:29;;;;;;;19.13;12.93;;;;;;;7.10;100.00;100817.09;10108307;28;20427;-74
2024/02/05 14:56:27;;;;;;;23.75;14.25;;;;;;;7.11;100.00;100824.16;10111486;28;20452;-74
2024/02/05 15:01:23;;;;;;;15.32;13.52;;;;;;;7.17;100.00;100831.13;10109125;28;20071;-73
2024/02/05 15:06:20;;;;;;;20.30;13.27;;;;;;;7.15;100.00;100834.16;10100699;28;20126;-74
2024/02/05 15:11:16;;;;;;;18.75;14.40;;;;;;;7.14;100.00;100842.59;10113181;28;20042;-76
2024/02/05 15:16:12;;;;;;;16.13;14.50;;;;;;;7.19;100.00;100856.13;10107725;28;20046;-75
2024/02/05 15:21:21;;;;;;;24.52;13.38;;;;;;;7.12;100.00;100850.25;10104820;28;20053;-74
2024/02/05 15:26:17;;;;;;;15.85;12.30;;;;;;;7.14;100.00;100864.34;10110245;28;20154;-74
2024/02/05 15:31:14;;;;;;;16.45;13.43;;;;;;;7.08;100.00;100866.34;10103426;28;20054;-74
2024/02/05 15:36:13;;;;;;;13.13;11.90;;;;;;;7.08;100.00;100865.53;10097876;28;20055;-75
2024/02/05 15:41:14;;;;;;;16.20;11.80;;;;;;;7.04;100.00;100869.94;10100100;28;20059;-74
2024/02/05 15:46:10;;;;;;;15.23;12.85;;;;;;;7.01;100.00;100859.63;10109175;28;20426;-74
2024/02/05 15:51:07;;;;;;;24.00;14.38;;;;;;;6.99;100.00;100867.28;10105353;28;20047;-75
2024/02/05 15:56:04;;;;;;;20.63;12.73;;;;;;;7.01;100.00;100867.78;10093351;28;20091;-75
2024/02/05 16:01:01;;;;;;;16.20;13.05;;;;;;;7.12;100.00;100861.13;10104973;28;20457;-75
2024/02/05 16:05:59;;;;;;;14.00;12.70;;;;;;;7.12;100.00;100866.56;10100616;28;20130;-74
2024/02/05 16:10:57;;;;;;;13.73;12.00;;;;;;;7.22;100.00;100877.31;10102397;28;20050;-74
2024/02/05 16:15:54;;;;;;;18.48;13.43;;;;;;;7.22;100.00;100893.63;10109896;28;20050;-74
2024/02/05 16:20:50;;;;;;;17.00;12.10;;;;;;;7.20;100.00;100893.13;10102791;28;20418;-74
2024/02/05 16:25:47;;;;;;;15.85;11.50;;;;;;;7.19;100.00;100918.69;10099573;28;20042;-75
2024/02/05 16:30:43;;;;;;;15.70;12.52;;;;;;;7.13;100.00;100928.00;10101016;28;20045;-75
2024/02/05 16:35:41;;;;;;;14.32;12.77;;;;;;;7.06;100.00;100900.34;10104850;28;20498;-74
2024/02/05 16:40:38;;;;;;;15.10;13.05;;;;;;;7.00;100.00;100901.50;10100621;28;20066;-74
2024/02/05 16:45:35;;;;;;;18.70;13.55;;;;;;;6.98;100.00;100879.22;10100944;28;20043;-75
2024/02/05 16:50:31;;;;;;;16.65;13.68;;;;;;;6.92;100.00;100864.91;10109519;28;20046;-71
2024/02/05 16:55:28;;;;;;;22.08;13.38;;;;;;;6.89;100.00;100844.56;10096668;28;20065;-74
2024/02/05 17:00:27;;;;;;;16.27;12.50;;;;;;;6.93;100.00;100842.84;10099738;28;20721;-74
2024/02/05 17:05:24;;;;;;;15.77;13.20;;;;;;;7.01;100.00;100848.75;10101411;28;20679;-73
2024/02/05 17:10:20;;;;;;;16.00;13.48;;;;;;;6.97;100.00;100836.84;10092972;28;20072;-74
2024/02/05 17:15:17;;;;;;;16.30;13.20;;;;;;;6.95;100.00;100839.84;10094690;28;20047;-73
2024/02/05 17:20:14;;;;;;;16.40;12.15;;;;;;;6.93;100.00;100842.84;10090123;28;20053;-74
2024/02/05 17:25:11;;;;;;;19.73;13.07;;;;;;;7.00;100.00;100830.81;10096440;28;20117;-74
2024/02/05 17:30:08;;;;;;;19.73;13.18;;;;;;;7.04;100.00;100853.63;10095598;28;20066;-73
2024/02/05 17:35:05;;;;;;;17.55;12.65;;;;;;;7.06;100.00;100860.38;10087476;28;21918;-76
2024/02/05 17:40:01;;;;;;;16.63;13.57;;;;;;;7.03;100.00;100830.22;10083823;28;20055;-74
2024/02/05 17:44:58;;;;;;;15.75;14.10;;;;;;;7.00;100.00;100831.63;10081386;28;20046;-74
2024/02/05 17:49:54;;;;;;;15.55;13.88;;;;;;;6.97;100.00;100847.72;10092264;28;20050;-74
2024/02/05 17:54:52;;;;;;;14.05;12.60;;;;;;;6.94;100.00;100828.19;10086156;28;20058;-74
2024/02/05 17:59:49;;;;;;;15.00;13.43;;;;;;;6.88;100.00;100812.22;10098759;28;20587;-74
2024/02/05 18:04:45;;;;;;;15.35;12.98;;;;;;;6.82;100.00;100797.84;10099670;28;20138;-74
2024/02/05 18:09:42;;;;;;;22.30;13.20;;;;;;;6.80;100.00;100778.34;10094125;28;20051;-74
2024/02/05 18:14:39;;;;;;;17.45;13.75;;;;;;;6.76;100.00;100771.06;10104042;28;20038;-75
2024/02/05 18:19:35;;;;;;;18.63;14.55;;;;;;;6.75;100.00;100764.78;10109905;28;20106;-74
2024/02/05 18:24:35;;;;;;;20.98;14.02;;;;;;;6.75;100.00;100743.06;10103346;28;20142;-73
2024/02/05 18:29:45;;;;;;;17.95;12.98;;;;;;;6.75;100.00;100726.75;10097698;28;20134;-74
2024/02/05 18:34:44;;;;;;;17.42;13.55;;;;;;;6.77;100.00;100735.44;10099902;28;20047;-75
2024/02/05 18:39:42;;;;;;;19.67;13.32;;;;;;;6.80;100.00;100706.84;10109028;28;20634;-74
2024/02/05 18:44:39;;;;;;;17.05;13.48;;;;;;;6.79;100.00;100699.81;10096460;28;20423;-73
2024/02/05 18:49:36;;;;;;;16.33;12.20;;;;;;;6.82;100.00;100693.78;10099136;28;20051;-74
2024/02/05 18:54:34;;;;;;;19.50;14.25;;;;;;;6.81;100.00;100692.19;10089418;28;20659;-75
2024/02/05 18:59:31;;;;;;;15.60;12.70;;;;;;;6.84;100.00;100681.50;10098507;28;20137;-74
2024/02/05 19:04:28;;;;;;;15.15;13.55;;;;;;;6.82;100.00;100672.03;10103710;28;20134;-73
2024/02/05 19:09:25;;;;;;;19.02;13.90;;;;;;;6.85;100.00;100683.16;10102862;28;20043;-74
2024/02/05 19:14:22;;;;;;;18.67;12.80;;;;;;;6.86;100.00;100668.44;10118894;28;20047;-74
2024/02/05 19:19:18;;;;;;;14.45;12.27;;;;;;;6.86;100.00;100654.84;10107189;28;20052;-73
2024/02/05 19:24:15;;;;;;;14.82;13.27;;;;;;;6.82;100.00;100639.44;10099343;28;20042;-73
2024/02/05 19:29:12;;;;;;;19.77;13.05;;;;;;;6.86;100.00;100668.44;10113047;28;20034;-73
2024/02/05 19:34:10;;;;;;;17.90;12.55;;;;;;;6.84;100.00;100653.53;10101875;28;20654;-73
2024/02/05 19:39:09;;;;;;;19.33;13.15;;;;;;;6.88;100.00;100639.06;10111675;28;20388;-73
2024/02/05 19:44:06;;;;;;;16.38;13.65;;;;;;;6.87;100.00;100621.16;10101980;28;20043;-74
2024/02/05 19:49:02;;;;;;;17.58;13.55;;;;;;;6.90;100.00;100636.88;10106776;28;20411;-73
2024/02/05 19:54:01;;;;;;;19.63;13.60;;;;;;;6.94;100.00;100631.66;10098213;28;20049;-74
2024/02/05 19:58:58;;;;;;;15.35;13.80;;;;;;;6.94;100.00;100610.72;10096749;28;20047;-73
2024/02/05 20:03:54;;;;;;;23.98;14.60;;;;;;;6.98;100.00;100610.13;10107606;28;20057;-74
2024/02/05 20:08:51;;;;;;;20.13;12.88;;;;;;;7.01;100.00;100620.38;10110059;28;20067;-73
2024/02/05 20:13:47;;;;;;;15.07;12.50;;;;;;;7.03;100.00;100612.75;10096550;28;20414;-73
2024/02/05 20:18:44;;;;;;;19.13;14.10;;;;;;;7.01;100.00;100598.63;10101694;28;20547;-74
2024/02/05 20:23:41;;;;;;;16.17;13.23;;;;;;;7.03;100.00;100601.88;10103893;28;20502;-73
2024/02/05 20:28:37;;;;;;;19.02;14.10;;;;;;;7.08;100.00;100593.66;10105875;28;20047;-74
2024/02/05 20:33:34;;;;;;;17.08;13.10;;;;;;;7.07;100.00;100583.88;10110734;28;20047;-74
2024/02/05 20:38:31;;;;;;;20.05;13.85;;;;;;;7.08;100.00;100588.22;10109146;28;20557;-73
2024/02/05 20:43:28;;;;;;;18.13;13.32;;;;;;;7.08;100.00;100577.34;10102627;28;20406;-73
2024/02/05 20:48:24;;;;;;;14.38;12.88;;;;;;;7.17;100.00;100572.81;10086005;28;20050;-72
2024/02/05 20:53:24;;;;;;;19.42;12.85;;;;;;;7.21;100.00;100584.72;10074797;28;20149;-73
2024/02/05 20:58:20;;;;;;;22.98;13.90;;;;;;;7.19;100.00;100572.53;10097847;28;20059;-74
2024/02/05 21:03:17;;;;;;;16.08;12.70;;;;;;;7.20;100.00;100585.03;10095456;28;20049;-75
2024/02/05 21:08:14;;;;;;;19.65;13.95;;;;;;;7.20;100.00;100585.81;10098861;28;20458;-74
2024/02/05 21:13:10;;;;;;;16.33;12.95;;;;;;;7.25;100.00;100598.53;10100520;28;20051;-74
2024/02/05 21:18:07;;;;;;;16.35;12.68;;;;;;;7.28;100.00;100582.41;10101143;28;20062;-73
2024/02/05 21:23:04;;;;;;;13.73;12.43;;;;;;;7.30;100.00;100579.41;10095646;28;20120;-74
2024/02/05 21:28:01;;;;;;;14.52;12.63;;;;;;;7.29;100.00;100600.34;10102182;28;20054;-74
2024/02/05 21:32:57;;;;;;;15.13;12.00;;;;;;;7.32;100.00;100582.63;10108280;28;21395;-74
2024/02/05 21:37:54;;;;;;;14.55;12.68;;;;;;;7.28;100.00;100593.28;10092777;28;20050;-75
2024/02/05 21:42:50;;;;;;;13.60;11.48;;;;;;;7.32;100.00;100594.31;10121813;28;20047;-76
2024/02/05 21:47:47;;;;;;;14.05;12.18;;;;;;;7.34;100.00;100592.09;10104342;28;20053;-75
2024/02/05 21:52:43;;;;;;;18.63;13.35;;;;;;;7.33;100.00;100593.22;10100265;28;20141;-76
2024/02/05 21:57:40;;;;;;;14.32;12.85;;;;;;;7.34;100.00;100586.66;10103855;28;20076;-74
2024/02/05 22:02:36;;;;;;;15.02;12.80;;;;;;;7.32;100.00;100569.03;10101435;28;20057;-74
2024/02/05 22:07:33;;;;;;;14.57;12.95;;;;;;;7.27;100.00;100575.38;10113108;28;20510;-75
2024/02/05 22:12:29;;;;;;;13.50;11.98;;;;;;;7.26;100.00;100568.28;10118330;28;20516;-74
2024/02/05 22:17:26;;;;;;;14.13;12.48;;;;;;;7.25;100.00;100558.53;10105324;28;20051;-79
2024/02/05 22:22:23;;;;;;;16.20;12.75;;;;;;;7.24;100.00;100542.50;10106471;28;20510;-77